Sm Falcon — H3MW — position and weather

sailwx.info

Track history (hours):
 
Tides and Currents Weather Stations Pressure Air Temp Water Temp Dewpoint Dewpoint Depression Visibility Wind Speed Wind Dir Waves Ship Positions

Sm Falcon

Last reported at 2018-May-11 10:52 UTC. Time now 2018-Jun-21 22:08 UTC.
Position N 34°31' E 127°57'.
Warning: this ship's position is 41 days out of date.

Length 182 m; draft 11 m.

Type: Tanker. MMSI: 352781000.

Date/timePositionNaut miles runAvg speedWind from/ knotsBaromVisibWave heightAir tempDewpointWater temp
2018-May-11 10:52N 34°31' E 127°57'  
2018-May-03 16:57N 41°19' E 140°13'4 8.7
2018-May-03 16:29N 41°21' E 140°17'4 8.5
2018-May-03 16:00N 41°24' E 140°21'5 9.4
2018-May-03 15:30N 41°27' E 140°26'5 9.1
2018-May-03 15:00N 41°29' E 140°32'4 8.8
2018-May-03 14:30N 41°32' E 140°36'4 9.1
2018-May-03 14:00N 41°34' E 140°41'5 9.9
2018-May-03 13:30N 41°37' E 140°47'5 9.6
2018-May-03 13:00N 41°38' E 140°53'5 9.1
2018-May-03 12:30N 41°39' E 140°59'4 7.4
2018-May-03 12:00N 41°39' E 141°04'4 8.9
2018-May-03 11:30N 41°39' E 141°10'5 9.7
2018-May-03 11:00N 41°39' E 141°16'5 9.6
2018-May-03 10:30N 41°40' E 141°23'5 9.5
2018-May-03 09:58N 41°40' E 141°30'5 9.6
2018-May-03 09:29N 41°40' E 141°36'5 9.8
2018-May-03 08:57N 41°41' E 141°43'  
Track history (hours):
 
Tides and Currents Weather Stations Pressure Air Temp Water Temp Dewpoint Dewpoint Depression Visibility Wind Speed Wind Dir Waves Ship Positions

Sm Falcon

Last reported at 2018-May-11 10:52 UTC. Time now 2018-Jun-21 22:08 UTC.
Position N 34°31' E 127°57'.
Warning: this ship's position is 41 days out of date.

Length 182 m; draft 11 m.

Type: Tanker. MMSI: 352781000.

Date/timePositionNaut miles runAvg speedWind from/ knotsBaromVisibWave heightAir tempDewpointWater temp
2018-May-11 10:52N 34°31' E 127°57'  
2018-May-03 16:57N 41°19' E 140°13'4 8.7
2018-May-03 16:29N 41°21' E 140°17'4 8.5
2018-May-03 16:00N 41°24' E 140°21'5 9.4
2018-May-03 15:30N 41°27' E 140°26'5 9.1
2018-May-03 15:00N 41°29' E 140°32'4 8.8
2018-May-03 14:30N 41°32' E 140°36'4 9.1
2018-May-03 14:00N 41°34' E 140°41'5 9.9
2018-May-03 13:30N 41°37' E 140°47'5 9.6
2018-May-03 13:00N 41°38' E 140°53'5 9.1
2018-May-03 12:30N 41°39' E 140°59'4 7.4
2018-May-03 12:00N 41°39' E 141°04'4 8.9
2018-May-03 11:30N 41°39' E 141°10'5 9.7
2018-May-03 11:00N 41°39' E 141°16'5 9.6
2018-May-03 10:30N 41°40' E 141°23'5 9.5
2018-May-03 09:58N 41°40' E 141°30'5 9.6
2018-May-03 09:29N 41°40' E 141°36'5 9.8
2018-May-03 08:57N 41°41' E 141°43'  

Dump ship's entire track history